createdAt,value
2023-03-10T00:02:24.858Z,34.79
2023-03-10T00:04:52.861Z,34.51
2023-03-10T00:07:20.288Z,34.48
2023-03-10T00:09:47.627Z,34.53
2023-03-10T00:12:16.087Z,34.14
2023-03-10T00:14:43.296Z,34.24
2023-03-10T00:17:10.581Z,34.27
2023-03-10T00:19:38.004Z,34.33
2023-03-10T00:22:05.205Z,34.53
2023-03-10T00:24:32.376Z,34.35
2023-03-10T00:26:59.797Z,34.35
2023-03-10T00:29:28.202Z,34.28
2023-03-10T00:31:55.346Z,34.39
2023-03-10T00:34:22.790Z,34.70
2023-03-10T00:36:51.781Z,35.04
2023-03-10T00:39:18.929Z,34.91
2023-03-10T00:41:46.340Z,34.95
2023-03-10T00:44:13.526Z,34.67
2023-03-10T00:46:40.744Z,34.42
2023-03-10T00:49:10.534Z,35.21
2023-03-10T00:51:37.682Z,35.29
2023-03-10T00:54:04.818Z,34.91
2023-03-10T00:56:32.314Z,35.03
2023-03-10T00:58:59.994Z,35.09
2023-03-10T01:01:28.599Z,35.12
2023-03-10T01:03:58.054Z,35.56
2023-03-10T01:06:25.562Z,35.36
2023-03-10T01:08:54.996Z,35.86
2023-03-10T01:11:23.633Z,35.83
2023-03-10T01:13:50.963Z,35.53
2023-03-10T01:16:18.177Z,36.06
2023-03-10T01:18:45.677Z,36.06
2023-03-10T01:21:19.737Z,35.95
2023-03-10T01:23:47.263Z,35.66
2023-03-10T01:26:18.568Z,35.74
2023-03-10T01:28:46.448Z,36.01
2023-03-10T01:31:14.336Z,36.00
2023-03-10T01:33:42.918Z,36.05
2023-03-10T01:36:11.028Z,35.81
2023-03-10T01:38:39.056Z,35.66
2023-03-10T01:41:06.610Z,35.98
2023-03-10T01:43:37.131Z,36.27
2023-03-10T01:46:04.505Z,36.07
2023-03-10T01:48:33.114Z,35.94
2023-03-10T01:51:00.655Z,36.60
2023-03-10T01:53:28.151Z,36.57
2023-03-10T01:55:56.911Z,36.26
2023-03-10T01:58:25.036Z,35.87
2023-03-10T02:00:52.921Z,36.18
2023-03-10T02:03:21.943Z,36.63
2023-03-10T02:05:52.034Z,36.60
2023-03-10T02:08:19.477Z,36.42
2023-03-10T02:10:46.710Z,36.66
2023-03-10T02:13:14.439Z,37.07
2023-03-10T02:15:41.699Z,36.82
2023-03-10T02:18:10.641Z,36.62
2023-03-10T02:20:41.115Z,36.64
2023-03-10T02:23:08.512Z,36.58
2023-03-10T02:25:41.810Z,36.54
2023-03-10T02:28:09.220Z,36.31
2023-03-10T02:30:49.613Z,36.07
2023-03-10T02:33:18.906Z,35.99
2023-03-10T02:35:46.126Z,36.14
2023-03-10T02:38:13.840Z,36.30
2023-03-10T02:40:41.269Z,36.21
2023-03-10T02:43:18.784Z,36.71
2023-03-10T02:45:47.639Z,36.91
2023-03-10T02:48:16.454Z,36.70
2023-03-10T02:50:43.672Z,37.35
2023-03-10T02:53:12.307Z,37.25
2023-03-10T02:55:40.148Z,37.32
2023-03-10T02:58:07.550Z,37.39
2023-03-10T03:00:38.780Z,37.58
2023-03-10T03:03:07.014Z,37.76
2023-03-10T03:05:34.592Z,38.14
2023-03-10T03:08:01.814Z,38.38
2023-03-10T03:10:29.027Z,38.76
2023-03-10T03:12:56.749Z,38.83
2023-03-10T03:15:25.002Z,39.01
2023-03-10T03:17:54.302Z,38.50
2023-03-10T03:20:22.088Z,38.38
2023-03-10T03:22:49.578Z,38.41
2023-03-10T03:25:17.585Z,38.55
2023-03-10T03:27:45.891Z,38.40
2023-03-10T03:30:14.398Z,38.14
2023-03-10T03:32:42.200Z,38.23
2023-03-10T03:35:14.187Z,38.08
2023-03-10T03:37:41.886Z,37.96
2023-03-10T03:40:12.876Z,39.36
2023-03-10T03:42:42.918Z,38.68
2023-03-10T03:45:10.705Z,38.27
2023-03-10T03:47:37.871Z,38.01
2023-03-10T03:50:06.233Z,38.17
2023-03-10T03:52:33.835Z,37.81
2023-03-10T03:55:01.583Z,38.42
2023-03-10T03:57:29.311Z,38.73
2023-03-10T03:59:56.491Z,38.41
2023-03-10T04:02:23.868Z,38.65
2023-03-10T04:04:53.144Z,39.08
2023-03-10T04:07:21.782Z,39.42
2023-03-10T04:09:49.462Z,39.26
2023-03-10T04:12:17.277Z,39.16
2023-03-10T04:14:45.923Z,38.91
2023-03-10T04:17:13.214Z,39.31
2023-03-10T04:19:40.651Z,39.54
2023-03-10T04:22:08.655Z,40.27
2023-03-10T04:24:39.651Z,39.89
2023-03-10T04:27:09.588Z,39.52
2023-03-10T04:29:37.044Z,39.18
2023-03-10T04:32:05.997Z,39.11
2023-03-10T04:34:33.841Z,38.87
2023-03-10T04:37:01.831Z,39.42
2023-03-10T04:39:29.137Z,39.82
2023-03-10T04:41:56.591Z,39.96
2023-03-10T04:44:31.002Z,40.06
2023-03-10T04:46:59.286Z,40.45
2023-03-10T04:49:27.031Z,40.35
2023-03-10T04:51:54.755Z,40.48
2023-03-10T04:54:22.183Z,40.68
2023-03-10T04:56:49.419Z,40.59
2023-03-10T04:59:16.681Z,40.48
2023-03-10T05:01:44.525Z,40.89
2023-03-10T05:04:11.759Z,40.49
2023-03-10T05:06:39.095Z,40.95
2023-03-10T05:09:06.880Z,41.00
2023-03-10T05:11:34.254Z,40.62
2023-03-10T05:14:01.799Z,40.93
2023-03-10T05:16:29.508Z,40.79
2023-03-10T05:18:56.904Z,40.84
2023-03-10T05:21:24.479Z,40.60
2023-03-10T05:23:52.184Z,40.06
2023-03-10T05:26:19.659Z,39.52
2023-03-10T05:28:47.640Z,39.93
2023-03-10T05:31:16.043Z,39.83
2023-03-10T05:33:43.671Z,39.87
2023-03-10T05:36:11.976Z,39.69
2023-03-10T05:38:39.689Z,39.60
2023-03-10T05:41:10.719Z,39.50
2023-03-10T05:43:38.555Z,39.33
2023-03-10T05:46:06.592Z,39.85
2023-03-10T05:48:35.103Z,39.98
2023-03-10T05:51:07.219Z,40.32
2023-03-10T05:53:34.954Z,40.36
2023-03-10T05:56:06.653Z,40.34
2023-03-10T05:58:33.887Z,39.99
2023-03-10T06:01:01.298Z,39.85
2023-03-10T06:03:47.312Z,40.44
2023-03-10T06:06:14.788Z,40.26
2023-03-10T06:08:43.067Z,40.13
2023-03-10T06:11:11.242Z,40.03
2023-03-10T06:13:38.669Z,39.69
2023-03-10T06:16:06.410Z,39.88
2023-03-10T06:18:33.778Z,39.86
2023-03-10T06:21:04.120Z,40.20
2023-03-10T06:23:31.267Z,40.26
2023-03-10T06:26:00.153Z,40.57
2023-03-10T06:28:32.773Z,40.73
2023-03-10T06:31:00.600Z,40.52
2023-03-10T06:33:28.510Z,41.37
2023-03-10T06:35:55.776Z,43.34
2023-03-10T06:38:23.358Z,42.40
2023-03-10T06:40:50.806Z,42.54
2023-03-10T06:43:18.032Z,42.22
2023-03-10T06:45:45.614Z,42.59
2023-03-10T06:48:13.289Z,41.78
2023-03-10T06:50:42.135Z,45.90
2023-03-10T06:53:09.880Z,44.07
2023-03-10T06:55:37.479Z,46.10
2023-03-10T06:58:04.628Z,46.16
2023-03-10T07:00:31.907Z,46.21
2023-03-10T07:02:59.319Z,43.92
2023-03-10T07:05:27.437Z,43.95
2023-03-10T07:07:55.436Z,43.45
2023-03-10T07:10:23.074Z,42.82
2023-03-10T07:12:55.183Z,42.70
2023-03-10T07:15:22.902Z,42.84
2023-03-10T07:17:50.217Z,44.77
2023-03-10T07:20:17.865Z,43.89
2023-03-10T07:22:45.314Z,46.30
2023-03-10T07:25:12.473Z,44.00
2023-03-10T07:27:39.623Z,43.64
2023-03-10T07:30:07.517Z,43.35
2023-03-10T07:32:34.802Z,47.90
2023-03-10T07:35:02.060Z,45.66
2023-03-10T07:37:29.492Z,48.71
2023-03-10T07:39:56.688Z,46.50
2023-03-10T07:42:23.841Z,46.96
2023-03-10T07:44:51.308Z,46.58
2023-03-10T07:47:18.615Z,46.46
2023-03-10T07:49:47.189Z,47.42
2023-03-10T07:52:15.234Z,46.63
2023-03-10T07:54:44.212Z,45.60
2023-03-10T07:57:14.440Z,45.70
2023-03-10T07:59:42.109Z,46.90
2023-03-10T08:02:11.628Z,45.95
2023-03-10T08:04:39.211Z,45.71
2023-03-10T08:07:06.525Z,46.20
2023-03-10T08:09:33.730Z,45.61
2023-03-10T08:12:01.816Z,44.92
2023-03-10T08:14:29.447Z,44.55
2023-03-10T08:16:56.968Z,44.45
2023-03-10T08:19:24.902Z,46.17
2023-03-10T08:21:54.176Z,43.80
2023-03-10T08:24:21.328Z,42.75
2023-03-10T08:26:49.689Z,44.00
2023-03-10T08:29:16.907Z,43.52
2023-03-10T08:31:44.084Z,43.04
2023-03-10T08:34:11.573Z,42.41
2023-03-10T08:36:39.156Z,44.11
2023-03-10T08:39:06.707Z,44.42
2023-03-10T08:41:46.718Z,44.77
2023-03-10T08:44:15.538Z,43.91
2023-03-10T08:46:46.393Z,44.14
2023-03-10T08:49:14.942Z,45.04
2023-03-10T08:51:42.717Z,43.94
2023-03-10T08:54:16.620Z,43.00
2023-03-10T08:56:44.084Z,42.45
2023-03-10T08:59:11.291Z,43.75
2023-03-10T09:01:38.528Z,42.88
2023-03-10T09:04:07.063Z,43.92
2023-03-10T09:06:34.443Z,42.13
2023-03-10T09:09:01.644Z,42.68
2023-03-10T09:11:32.551Z,42.25
2023-03-10T09:14:00.304Z,43.61
2023-03-10T09:16:28.712Z,42.72
2023-03-10T09:18:56.740Z,43.52
2023-03-10T09:21:23.877Z,44.23
2023-03-10T09:23:52.822Z,44.50
2023-03-10T09:26:20.414Z,45.73
2023-03-10T09:28:49.444Z,45.44
2023-03-10T09:31:21.805Z,45.64
2023-03-10T09:33:49.265Z,46.62
2023-03-10T09:36:17.213Z,44.55
2023-03-10T09:38:44.392Z,44.72
2023-03-10T09:41:32.273Z,45.75
2023-03-10T09:44:19.486Z,46.15
2023-03-10T09:47:01.808Z,43.83
2023-03-10T09:49:32.384Z,44.91
2023-03-10T09:51:59.800Z,46.13
2023-03-10T09:54:51.239Z,46.67
2023-03-10T09:57:19.131Z,48.11
2023-03-10T09:59:46.386Z,48.58
2023-03-10T10:02:46.083Z,47.65
2023-03-10T10:05:20.434Z,48.38
2023-03-10T10:07:49.484Z,50.75
2023-03-10T10:10:18.374Z,47.75
2023-03-10T10:12:46.856Z,48.83
2023-03-10T10:15:15.929Z,50.03
2023-03-10T10:17:55.027Z,45.65
2023-03-10T10:20:27.567Z,48.44
2023-03-10T10:22:54.982Z,48.57
2023-03-10T10:25:22.866Z,46.50
2023-03-10T10:27:52.287Z,45.79
2023-03-10T10:30:26.827Z,44.70
2023-03-10T10:33:13.320Z,42.84
2023-03-10T10:35:42.165Z,41.45
2023-03-10T10:38:09.323Z,41.77
2023-03-10T10:40:50.002Z,40.90
2023-03-10T10:43:18.217Z,39.99
2023-03-10T10:45:45.535Z,39.16
2023-03-10T10:48:36.669Z,38.11
2023-03-10T10:51:04.740Z,37.67
2023-03-10T10:53:35.397Z,38.87
2023-03-10T10:56:06.726Z,38.18
2023-03-10T10:58:35.425Z,39.81
2023-03-10T11:01:04.103Z,39.91
2023-03-10T11:03:35.488Z,40.33
2023-03-10T11:06:23.157Z,38.84
2023-03-10T11:08:53.285Z,39.38
2023-03-10T11:11:26.663Z,38.57
2023-03-10T11:13:56.797Z,39.01
2023-03-10T11:16:24.244Z,38.54
2023-03-10T11:18:53.132Z,39.30
2023-03-10T11:21:26.025Z,38.18
2023-03-10T11:24:10.924Z,38.60
2023-03-10T11:26:38.090Z,40.20
2023-03-10T11:29:24.195Z,39.77
2023-03-10T11:31:54.373Z,39.44
2023-03-10T11:34:31.530Z,39.28
2023-03-10T11:37:01.495Z,38.42
2023-03-10T11:39:34.727Z,38.31
2023-03-10T11:42:28.051Z,38.03
2023-03-10T11:44:55.442Z,38.04
2023-03-10T11:47:34.927Z,37.46
2023-03-10T11:50:06.059Z,38.36
2023-03-10T11:52:33.320Z,37.43
2023-03-10T11:55:05.745Z,38.83
2023-03-10T11:57:35.304Z,39.73
2023-03-10T12:00:05.690Z,38.50
2023-03-10T12:02:41.377Z,38.16
2023-03-10T12:05:22.619Z,39.14
2023-03-10T12:07:50.571Z,38.55
2023-03-10T12:10:19.257Z,38.79
2023-03-10T12:12:47.247Z,39.14
2023-03-10T12:15:19.584Z,40.00
2023-03-10T12:17:47.048Z,39.78
2023-03-10T12:20:18.142Z,39.91
2023-03-10T12:22:50.298Z,40.35
2023-03-10T12:25:27.100Z,40.77
2023-03-10T12:28:13.382Z,40.92
2023-03-10T12:30:43.609Z,41.47
2023-03-10T12:33:29.329Z,40.47
2023-03-10T12:36:09.632Z,40.73
2023-03-10T12:38:36.883Z,41.42
2023-03-10T12:41:04.403Z,41.75
2023-03-10T12:43:43.907Z,42.39
2023-03-10T12:46:11.986Z,40.38
2023-03-10T12:48:40.376Z,41.11
2023-03-10T12:51:09.945Z,39.99
2023-03-10T12:53:48.311Z,41.61
2023-03-10T12:56:15.397Z,40.53
2023-03-10T12:58:48.759Z,38.82
2023-03-10T13:01:17.789Z,40.37
2023-03-10T13:03:46.444Z,40.46
2023-03-10T13:06:13.652Z,39.45
2023-03-10T13:08:47.532Z,40.27
2023-03-10T13:11:17.952Z,40.81
2023-03-10T13:13:47.358Z,39.79
2023-03-10T13:16:21.248Z,41.46
2023-03-10T13:18:49.198Z,41.23
2023-03-10T13:21:42.925Z,41.06
2023-03-10T13:24:36.639Z,40.87
2023-03-10T13:27:17.336Z,42.57
2023-03-10T13:29:54.426Z,42.39
2023-03-10T13:32:22.171Z,42.96
2023-03-10T13:34:49.377Z,43.63
2023-03-10T13:37:16.612Z,43.44
2023-03-10T13:39:44.045Z,42.90
2023-03-10T13:42:37.136Z,40.94
2023-03-10T13:45:13.908Z,41.41
2023-03-10T13:47:41.282Z,41.74
2023-03-10T13:50:13.193Z,42.42
2023-03-10T13:52:41.245Z,41.66
2023-03-10T13:55:12.445Z,40.75
2023-03-10T13:57:40.235Z,41.04
2023-03-10T14:00:10.334Z,40.76
2023-03-10T14:02:39.766Z,41.67
2023-03-10T14:05:08.304Z,42.58
2023-03-10T14:07:38.613Z,42.90
2023-03-10T14:10:10.236Z,43.85
2023-03-10T14:12:48.066Z,42.51
2023-03-10T14:15:15.190Z,43.45
2023-03-10T14:17:43.618Z,44.16
2023-03-10T14:20:11.387Z,44.01
2023-03-10T14:22:41.328Z,42.91
2023-03-10T14:25:10.795Z,43.37
2023-03-10T14:27:40.511Z,43.73
2023-03-10T14:30:30.596Z,42.55
2023-03-10T14:32:58.569Z,43.39
2023-03-10T14:35:26.447Z,44.59
2023-03-10T14:37:53.823Z,44.65
2023-03-10T14:40:21.641Z,45.71
2023-03-10T14:42:49.781Z,44.16
2023-03-10T14:45:27.879Z,46.26
2023-03-10T14:47:56.097Z,44.96
2023-03-10T14:50:23.506Z,47.06
2023-03-10T14:52:50.666Z,45.53
2023-03-10T14:55:18.105Z,45.99
2023-03-10T14:57:45.471Z,46.68
2023-03-10T15:00:18.541Z,47.42
2023-03-10T15:02:46.417Z,47.28
2023-03-10T15:05:17.654Z,47.55
2023-03-10T15:07:44.996Z,45.89
2023-03-10T15:10:12.976Z,46.32
2023-03-10T15:12:40.508Z,47.63
2023-03-10T15:15:10.650Z,46.00
2023-03-10T15:17:40.982Z,46.34
2023-03-10T15:20:14.433Z,47.15
2023-03-10T15:22:42.351Z,46.82
2023-03-10T15:25:09.664Z,47.00
2023-03-10T15:27:36.791Z,47.15
2023-03-10T15:30:04.840Z,44.73
2023-03-10T15:32:32.065Z,45.35
2023-03-10T15:34:59.229Z,45.17
2023-03-10T15:37:27.909Z,44.65
2023-03-10T15:39:55.047Z,46.13
2023-03-10T15:42:22.392Z,47.31
2023-03-10T15:44:50.106Z,45.88
2023-03-10T15:47:17.251Z,46.94
2023-03-10T15:49:44.701Z,46.88
2023-03-10T15:52:12.235Z,47.40
2023-03-10T15:54:40.157Z,46.75
2023-03-10T15:57:09.678Z,46.85
2023-03-10T15:59:38.162Z,47.83
2023-03-10T16:02:05.461Z,47.11
2023-03-10T16:04:33.324Z,46.60
2023-03-10T16:07:03.960Z,48.06
2023-03-10T16:09:31.111Z,48.90
2023-03-10T16:11:58.584Z,49.21
2023-03-10T16:14:26.479Z,48.05
2023-03-10T16:16:53.670Z,49.93
2023-03-10T16:19:21.379Z,48.10
2023-03-10T16:21:48.519Z,48.24
2023-03-10T16:24:15.951Z,47.44
2023-03-10T16:26:44.830Z,46.57
2023-03-10T16:29:12.259Z,45.07
2023-03-10T16:31:39.651Z,45.19
2023-03-10T16:34:07.825Z,42.95
2023-03-10T16:36:36.884Z,41.88
2023-03-10T16:39:08.947Z,41.68
2023-03-10T16:41:36.537Z,40.54
2023-03-10T16:44:07.118Z,40.26
2023-03-10T16:46:34.330Z,39.69
2023-03-10T16:49:02.585Z,39.27
2023-03-10T16:51:38.118Z,39.35
2023-03-10T16:54:07.118Z,39.42
2023-03-10T16:56:38.718Z,38.81
2023-03-10T16:59:06.792Z,38.60
2023-03-10T17:01:34.071Z,38.62
2023-03-10T17:04:01.752Z,38.72
2023-03-10T17:06:30.878Z,39.29
2023-03-10T17:08:58.652Z,41.55
2023-03-10T17:11:27.691Z,44.89
2023-03-10T17:13:56.156Z,45.47
2023-03-10T17:16:25.086Z,44.37
2023-03-10T17:18:52.372Z,43.98
2023-03-10T17:21:21.380Z,43.60
2023-03-10T17:23:48.985Z,43.55
2023-03-10T17:26:17.329Z,43.96
2023-03-10T17:28:46.329Z,43.47
2023-03-10T17:31:14.729Z,43.29
2023-03-10T17:33:43.527Z,43.24
2023-03-10T17:36:12.695Z,41.88
2023-03-10T17:38:42.108Z,41.60
2023-03-10T17:41:10.742Z,42.89
2023-03-10T17:43:40.568Z,41.15
2023-03-10T17:46:11.405Z,40.18
2023-03-10T17:48:39.590Z,40.44
2023-03-10T17:51:07.607Z,40.50
2023-03-10T17:53:35.479Z,40.27
2023-03-10T17:56:04.985Z,40.33
2023-03-10T17:58:32.822Z,40.30
2023-03-10T18:01:10.854Z,40.67
2023-03-10T18:03:39.333Z,40.07
2023-03-10T18:06:13.003Z,39.71
2023-03-10T18:08:41.981Z,40.01
2023-03-10T18:11:09.942Z,39.90
2023-03-10T18:13:39.086Z,39.45
2023-03-10T18:16:07.357Z,39.14
2023-03-10T18:18:34.789Z,40.26
2023-03-10T18:21:03.645Z,41.24
2023-03-10T18:23:31.857Z,43.20
2023-03-10T18:25:59.923Z,42.39
2023-03-10T18:28:27.819Z,44.33
2023-03-10T18:30:58.782Z,45.84
2023-03-10T18:33:26.675Z,45.74
2023-03-10T18:35:56.241Z,45.60
2023-03-10T18:38:25.983Z,45.01
2023-03-10T18:41:00.767Z,44.41
2023-03-10T18:43:29.811Z,43.79
2023-03-10T18:45:58.613Z,43.11
2023-03-10T18:48:28.538Z,42.47
2023-03-10T18:50:58.245Z,43.50
2023-03-10T18:53:26.803Z,44.48
2023-03-10T18:55:55.102Z,44.76
2023-03-10T18:58:23.291Z,45.10
2023-03-10T19:00:51.298Z,47.67
2023-03-10T19:03:19.732Z,47.00
2023-03-10T19:05:52.944Z,47.29
2023-03-10T20:04:00.212Z,70.57
2023-03-10T20:06:29.913Z,68.15
2023-03-10T20:08:59.218Z,67.38
2023-03-10T20:11:28.313Z,66.67
2023-03-10T20:13:59.687Z,66.11
2023-03-10T20:16:28.684Z,66.82
2023-03-10T20:18:57.730Z,66.48
2023-03-10T20:21:27.550Z,65.91
2023-03-10T20:23:58.909Z,65.52
2023-03-10T20:26:27.809Z,64.61
2023-03-10T20:28:56.463Z,64.39
2023-03-10T20:31:26.296Z,64.27
2023-03-10T20:33:56.004Z,67.12
2023-03-10T20:36:25.095Z,70.41
2023-03-10T20:38:54.346Z,67.83
2023-03-10T20:41:22.630Z,68.02
2023-03-10T20:43:53.992Z,65.54
2023-03-10T20:46:23.209Z,67.13
2023-03-10T20:48:52.650Z,66.78
2023-03-10T20:51:23.024Z,65.99
2023-03-10T20:53:52.141Z,65.61
2023-03-10T20:56:20.288Z,66.88
2023-03-10T20:58:48.827Z,65.36
2023-03-10T21:01:19.885Z,65.83
2023-03-10T21:03:48.383Z,66.97
2023-03-10T21:06:18.828Z,66.73
2023-03-10T21:08:48.111Z,66.17
2023-03-10T21:11:17.106Z,66.70
2023-03-10T21:13:46.201Z,67.04
2023-03-10T21:16:14.427Z,65.42
2023-03-10T21:18:42.368Z,64.78
2023-03-10T21:21:12.623Z,64.48
2023-03-10T21:23:42.486Z,63.98
2023-03-10T21:26:16.804Z,64.28
2023-03-10T21:28:44.816Z,65.08
2023-03-10T21:31:13.590Z,64.05
2023-03-10T21:33:45.028Z,63.82
2023-03-10T21:36:21.658Z,64.06
2023-03-10T21:38:50.243Z,63.51
2023-03-10T21:41:21.315Z,63.78
2023-03-10T21:43:49.911Z,63.43
2023-03-10T21:46:18.232Z,63.41
2023-03-10T21:48:45.966Z,63.43
2023-03-10T21:51:18.337Z,64.51
2023-03-10T21:53:46.603Z,64.43
2023-03-10T21:56:17.975Z,63.91
2023-03-10T21:58:46.812Z,64.00
2023-03-10T22:01:16.134Z,65.23
2023-03-10T22:03:44.354Z,64.51
2023-03-10T22:06:11.824Z,63.96
2023-03-10T22:08:39.224Z,64.24
2023-03-10T22:11:08.377Z,65.17
2023-03-10T22:13:37.415Z,65.07
2023-03-10T22:16:06.930Z,67.88
2023-03-10T22:18:34.623Z,65.07
2023-03-10T22:21:02.095Z,64.57
2023-03-10T22:23:29.767Z,62.61
2023-03-10T22:25:57.574Z,65.24
2023-03-10T22:28:25.315Z,65.47
2023-03-10T22:30:53.083Z,64.85
2023-03-10T22:33:20.943Z,63.78
2023-03-10T22:35:52.157Z,63.49
2023-03-10T22:38:20.439Z,62.76
2023-03-10T22:40:48.936Z,64.19
2023-03-10T22:43:16.417Z,63.72
2023-03-10T22:45:43.907Z,62.89
2023-03-10T22:48:11.736Z,62.88
2023-03-10T22:50:41.686Z,61.72
2023-03-10T22:53:14.532Z,63.06
2023-03-10T22:55:43.635Z,63.10
2023-03-10T22:58:11.301Z,62.54
2023-03-10T23:00:39.765Z,63.10
2023-03-10T23:03:08.959Z,61.84
2023-03-10T23:05:36.473Z,60.18
2023-03-10T23:08:04.675Z,61.49
2023-03-10T23:10:34.408Z,61.69
2023-03-10T23:13:04.790Z,61.56
2023-03-10T23:15:34.745Z,62.02
2023-03-10T23:18:02.267Z,60.82
2023-03-10T23:20:33.378Z,58.35
2023-03-10T23:23:03.768Z,58.86
2023-03-10T23:25:37.850Z,58.93
2023-03-10T23:28:07.267Z,56.48
2023-03-10T23:30:35.901Z,57.62
2023-03-10T23:33:03.515Z,57.47
2023-03-10T23:35:33.640Z,57.11
2023-03-10T23:38:02.515Z,57.60
2023-03-10T23:40:31.471Z,58.93
2023-03-10T23:43:00.584Z,57.88
2023-03-10T23:45:29.797Z,56.98
2023-03-10T23:47:59.220Z,56.60
2023-03-10T23:50:30.349Z,56.74
2023-03-10T23:53:02.768Z,56.57
2023-03-10T23:55:34.087Z,56.86
2023-03-10T23:58:01.743Z,54.96
